createdAt,value
2022-08-21T00:01:32.065Z,63.05
2022-08-21T00:03:58.278Z,63.18
2022-08-21T00:06:25.160Z,63.22
2022-08-21T00:08:51.341Z,63.11
2022-08-21T00:11:17.606Z,63.33
2022-08-21T00:13:43.832Z,63.28
2022-08-21T00:16:10.020Z,63.47
2022-08-21T00:18:36.244Z,63.60
2022-08-21T00:21:02.407Z,63.56
2022-08-21T00:23:28.571Z,63.74
2022-08-21T00:25:54.733Z,63.96
2022-08-21T00:28:20.854Z,64.09
2022-08-21T00:30:46.981Z,64.23
2022-08-21T00:33:13.435Z,64.34
2022-08-21T00:35:39.570Z,64.36
2022-08-21T00:38:05.711Z,64.38
2022-08-21T00:40:31.873Z,64.64
2022-08-21T00:42:58.028Z,64.53
2022-08-21T00:45:24.170Z,64.68
2022-08-21T00:47:50.320Z,64.51
2022-08-21T00:50:21.767Z,64.51
2022-08-21T00:52:48.466Z,64.76
2022-08-21T00:55:14.783Z,64.74
2022-08-21T00:57:41.456Z,64.88
2022-08-21T01:00:07.592Z,64.73
2022-08-21T01:02:33.826Z,65.09
2022-08-21T01:04:59.978Z,65.16
2022-08-21T01:07:27.666Z,65.33
2022-08-21T01:09:54.012Z,65.26
2022-08-21T01:12:20.137Z,65.39
2022-08-21T01:14:46.270Z,65.49
2022-08-21T01:17:12.437Z,65.46
2022-08-21T01:19:38.566Z,65.53
2022-08-21T01:22:04.718Z,65.58
2022-08-21T01:24:30.876Z,65.71
2022-08-21T01:26:57.015Z,65.79
2022-08-21T01:29:23.150Z,65.88
2022-08-21T01:31:49.314Z,65.86
2022-08-21T01:34:15.449Z,66.17
2022-08-21T01:36:41.580Z,66.04
2022-08-21T01:39:07.742Z,66.25
2022-08-21T01:41:33.878Z,66.18
2022-08-21T01:44:00.023Z,66.06
2022-08-21T01:46:26.175Z,66.14
2022-08-21T01:48:52.327Z,66.32
2022-08-21T01:51:18.459Z,66.08
2022-08-21T01:53:44.628Z,66.20
2022-08-21T01:56:12.498Z,66.51
2022-08-21T01:58:38.903Z,66.33
2022-08-21T02:01:05.115Z,66.61
2022-08-21T02:03:35.823Z,66.78
2022-08-21T02:06:02.488Z,66.68
2022-08-21T02:08:28.642Z,66.76
2022-08-21T02:10:54.791Z,66.61
2022-08-21T02:13:20.934Z,66.81
2022-08-21T02:15:47.080Z,66.92
2022-08-21T02:18:13.230Z,66.86
2022-08-21T02:20:39.347Z,66.94
2022-08-21T02:23:05.501Z,66.96
2022-08-21T02:25:31.643Z,66.98
2022-08-21T02:27:57.786Z,67.12
2022-08-21T02:30:23.953Z,67.06
2022-08-21T02:32:50.081Z,67.01
2022-08-21T02:35:16.220Z,67.27
2022-08-21T02:37:42.943Z,67.39
2022-08-21T02:40:09.104Z,67.45
2022-08-21T02:42:35.278Z,67.64
2022-08-21T02:45:01.425Z,67.69
2022-08-21T02:47:27.554Z,67.61
2022-08-21T02:49:53.693Z,67.78
2022-08-21T02:52:20.123Z,67.86
2022-08-21T02:54:46.252Z,67.71
2022-08-21T02:57:12.398Z,67.86
2022-08-21T02:59:38.600Z,67.73
2022-08-21T03:02:04.781Z,67.70
2022-08-21T03:04:30.953Z,67.65
2022-08-21T03:06:57.107Z,67.72
2022-08-21T03:09:23.240Z,68.13
2022-08-21T03:11:49.372Z,67.94
2022-08-21T03:14:15.525Z,68.02
2022-08-21T03:16:41.677Z,68.24
2022-08-21T03:19:07.803Z,68.37
2022-08-21T03:21:33.958Z,68.41
2022-08-21T03:24:00.098Z,68.37
2022-08-21T03:26:30.339Z,68.58
2022-08-21T03:28:57.732Z,68.60
2022-08-21T03:31:23.875Z,68.60
2022-08-21T03:33:50.008Z,68.53
2022-08-21T03:36:16.184Z,68.69
2022-08-21T03:38:42.317Z,68.71
2022-08-21T03:41:08.464Z,68.59
2022-08-21T03:43:34.914Z,68.84
2022-08-21T03:46:01.046Z,68.74
2022-08-21T03:48:27.165Z,68.77
2022-08-21T03:50:53.395Z,68.97
2022-08-21T03:53:19.517Z,68.85
2022-08-21T03:55:45.653Z,69.01
2022-08-21T03:58:16.200Z,69.16
2022-08-21T04:00:43.189Z,69.25
2022-08-21T04:03:09.316Z,69.25
2022-08-21T04:05:35.479Z,69.13
2022-08-21T04:08:01.618Z,69.24
2022-08-21T04:10:27.763Z,69.41
2022-08-21T04:12:54.013Z,69.38
2022-08-21T04:15:20.221Z,69.26
2022-08-21T04:17:46.365Z,69.19
2022-08-21T04:20:12.518Z,69.44
2022-08-21T04:22:38.641Z,69.55
2022-08-21T04:25:04.762Z,69.43
2022-08-21T04:27:30.904Z,69.60
2022-08-21T04:29:57.055Z,69.59
2022-08-21T04:32:23.200Z,69.41
2022-08-21T04:34:49.351Z,69.65
2022-08-21T04:37:15.497Z,69.77
2022-08-21T04:39:41.653Z,69.77
2022-08-21T04:42:07.941Z,69.73
2022-08-21T04:44:34.079Z,69.79
2022-08-21T04:47:00.205Z,69.63
2022-08-21T04:49:26.345Z,69.62
2022-08-21T04:51:52.469Z,69.85
2022-08-21T04:54:18.599Z,69.88
2022-08-21T04:56:44.802Z,69.72
2022-08-21T04:59:10.933Z,69.95
2022-08-21T05:01:37.190Z,69.92
2022-08-21T05:04:03.380Z,69.79
2022-08-21T05:06:29.527Z,69.99
2022-08-21T05:08:55.852Z,70.12
2022-08-21T05:11:28.335Z,69.80
2022-08-21T05:13:57.052Z,70.00
2022-08-21T05:16:36.815Z,69.82
2022-08-21T05:19:03.738Z,69.98
2022-08-21T05:21:29.890Z,70.11
2022-08-21T05:23:56.047Z,69.93
2022-08-21T05:26:22.220Z,70.09
2022-08-21T05:28:48.374Z,70.11
2022-08-21T05:31:14.500Z,70.00
2022-08-21T05:33:41.015Z,70.14
2022-08-21T05:36:10.178Z,70.19
2022-08-21T05:38:36.323Z,70.17
2022-08-21T05:41:02.579Z,70.13
2022-08-21T05:43:28.720Z,69.98
2022-08-21T05:45:54.865Z,70.08
2022-08-21T05:48:21.505Z,69.94
2022-08-21T05:50:47.648Z,70.28
2022-08-21T05:53:13.781Z,70.26
2022-08-21T05:55:44.909Z,70.42
2022-08-21T05:58:12.125Z,70.24
2022-08-21T06:00:38.275Z,70.33
2022-08-21T06:03:04.708Z,70.56
2022-08-21T06:05:37.058Z,70.75
2022-08-21T06:08:03.728Z,70.46
2022-08-21T06:10:30.358Z,70.45
2022-08-21T06:12:56.575Z,70.57
2022-08-21T06:15:22.826Z,70.30
2022-08-21T06:17:48.964Z,70.38
2022-08-21T06:20:15.106Z,70.57
2022-08-21T06:22:41.264Z,70.79
2022-08-21T06:25:07.417Z,70.68
2022-08-21T06:27:33.556Z,70.64
2022-08-21T06:29:59.698Z,70.83
2022-08-21T06:32:25.877Z,70.87
2022-08-21T06:34:52.007Z,70.73
2022-08-21T06:37:18.146Z,70.85
2022-08-21T06:39:45.449Z,70.62
2022-08-21T06:42:11.699Z,70.65
2022-08-21T06:44:37.837Z,70.70
2022-08-21T06:47:04.064Z,70.71
2022-08-21T06:49:30.218Z,70.55
2022-08-21T06:51:56.359Z,70.48
2022-08-21T06:54:22.805Z,70.52
2022-08-21T06:56:48.966Z,70.38
2022-08-21T06:59:15.106Z,70.14
2022-08-21T07:01:41.265Z,70.21
2022-08-21T07:04:07.468Z,70.12
2022-08-21T07:06:34.057Z,69.95
2022-08-21T07:09:01.162Z,69.78
2022-08-21T07:11:27.304Z,69.80
2022-08-21T07:13:53.439Z,69.67
2022-08-21T07:16:19.575Z,69.47
2022-08-21T07:18:45.713Z,69.07
2022-08-21T07:21:11.841Z,68.85
2022-08-21T07:23:37.985Z,68.46
2022-08-21T07:26:04.330Z,68.03
2022-08-21T07:28:30.613Z,67.85
2022-08-21T07:30:56.797Z,67.30
2022-08-21T07:33:22.936Z,67.00
2022-08-21T07:35:49.069Z,66.79
2022-08-21T07:38:15.223Z,66.37
2022-08-21T07:40:41.361Z,65.93
2022-08-21T07:43:07.502Z,65.72
2022-08-21T07:45:33.687Z,65.53
2022-08-21T07:47:59.811Z,65.15
2022-08-21T07:50:25.936Z,64.74
2022-08-21T07:52:52.159Z,64.38
2022-08-21T07:55:18.335Z,63.83
2022-08-21T07:57:44.448Z,63.42
2022-08-21T08:00:10.606Z,63.00
2022-08-21T08:02:36.744Z,62.76
2022-08-21T08:05:02.885Z,62.67
2022-08-21T08:07:29.539Z,62.51
2022-08-21T08:09:55.663Z,62.07
2022-08-21T08:12:21.795Z,61.30
2022-08-21T08:14:47.933Z,60.45
2022-08-21T08:17:14.062Z,59.55
2022-08-21T08:19:40.192Z,58.91
2022-08-21T08:22:06.345Z,58.26
2022-08-21T08:24:32.474Z,57.36
2022-08-21T08:26:58.625Z,56.99
2022-08-21T08:29:24.770Z,56.88
2022-08-21T08:31:50.905Z,56.80
2022-08-21T08:34:23.579Z,56.49
2022-08-21T08:36:51.965Z,55.91
2022-08-21T08:39:26.502Z,55.62
2022-08-21T08:41:58.684Z,55.27
2022-08-21T08:44:25.005Z,55.25
2022-08-21T08:46:57.489Z,54.82
2022-08-21T08:49:23.790Z,54.41
2022-08-21T08:51:53.137Z,54.08
2022-08-21T08:54:19.420Z,53.85
2022-08-21T08:56:45.856Z,53.56
2022-08-21T08:59:11.990Z,53.06
2022-08-21T09:01:39.224Z,53.01
2022-08-21T09:04:05.555Z,53.08
2022-08-21T09:06:31.685Z,52.89
2022-08-21T09:08:57.834Z,52.48
2022-08-21T09:11:23.981Z,52.10
2022-08-21T09:13:50.113Z,51.67
2022-08-21T09:16:16.260Z,51.50
2022-08-21T09:18:42.415Z,51.41
2022-08-21T09:21:08.541Z,51.20
2022-08-21T09:23:34.680Z,51.10
2022-08-21T09:26:00.848Z,50.94
2022-08-21T09:28:26.994Z,50.87
2022-08-21T09:30:53.131Z,50.60
2022-08-21T09:33:19.292Z,50.09
2022-08-21T09:35:45.446Z,50.13
2022-08-21T09:38:11.632Z,50.27
2022-08-21T09:40:37.882Z,50.67
2022-08-21T09:43:10.482Z,50.97
2022-08-21T09:45:36.611Z,50.92
2022-08-21T09:48:02.794Z,51.05
2022-08-21T09:50:28.920Z,50.76
2022-08-21T09:52:56.492Z,50.37
2022-08-21T09:55:22.730Z,50.20
2022-08-21T09:57:50.318Z,49.98
2022-08-21T10:00:16.942Z,49.72
2022-08-21T10:02:43.133Z,49.36
2022-08-21T10:05:09.266Z,49.41
2022-08-21T10:07:35.406Z,49.12
2022-08-21T10:10:01.836Z,49.22
2022-08-21T10:12:27.961Z,48.94
2022-08-21T10:14:54.101Z,48.50
2022-08-21T10:17:20.762Z,48.52
2022-08-21T10:19:49.719Z,48.26
2022-08-21T10:22:15.874Z,48.02
2022-08-21T10:24:42.102Z,47.87
2022-08-21T10:27:08.251Z,47.88
2022-08-21T10:29:34.381Z,48.05
2022-08-21T10:32:00.524Z,47.95
2022-08-21T10:34:26.665Z,47.62
2022-08-21T10:36:52.798Z,47.20
2022-08-21T10:39:26.634Z,47.22
2022-08-21T10:42:01.519Z,47.07
2022-08-21T10:44:27.678Z,46.43
2022-08-21T10:46:53.809Z,46.19
2022-08-21T10:49:19.963Z,46.02
2022-08-21T10:51:46.115Z,45.64
2022-08-21T10:54:12.253Z,45.69
2022-08-21T10:56:38.416Z,45.66
2022-08-21T10:59:06.648Z,45.60
2022-08-21T11:01:32.785Z,45.00
2022-08-21T11:03:58.916Z,44.67
2022-08-21T11:06:26.765Z,44.67
2022-08-21T11:08:52.894Z,44.43
2022-08-21T11:11:19.935Z,44.42
2022-08-21T11:13:48.469Z,44.61
2022-08-21T11:16:14.648Z,44.37
2022-08-21T11:18:40.777Z,44.39
2022-08-21T11:21:06.924Z,44.13
2022-08-21T11:23:33.053Z,43.80
2022-08-21T11:25:59.184Z,43.35
2022-08-21T11:28:25.360Z,43.20
2022-08-21T11:30:51.513Z,43.32
2022-08-21T11:33:17.646Z,43.53
2022-08-21T11:35:43.841Z,43.47
2022-08-21T11:38:10.006Z,43.61
2022-08-21T11:40:36.136Z,43.36
2022-08-21T11:43:02.313Z,42.87
2022-08-21T11:45:28.889Z,43.04
2022-08-21T11:47:55.033Z,43.07
2022-08-21T11:50:34.237Z,42.99
2022-08-21T11:53:02.385Z,42.99
2022-08-21T11:55:28.536Z,42.63
2022-08-21T11:57:54.679Z,42.55
2022-08-21T12:00:20.802Z,42.60
2022-08-21T12:02:46.942Z,42.58
2022-08-21T12:05:13.066Z,42.16
2022-08-21T12:07:39.192Z,41.75
2022-08-21T12:10:05.822Z,41.46
2022-08-21T12:12:31.955Z,41.34
2022-08-21T12:14:58.088Z,41.23
2022-08-21T12:17:24.233Z,41.14
2022-08-21T12:19:50.352Z,40.80
2022-08-21T12:22:16.499Z,40.48
2022-08-21T12:24:42.663Z,40.41
2022-08-21T12:27:08.807Z,40.34
2022-08-21T12:29:34.942Z,40.41
2022-08-21T12:32:01.104Z,40.18
2022-08-21T12:34:27.252Z,40.20
2022-08-21T12:36:53.398Z,39.80
2022-08-21T12:39:19.557Z,39.67
2022-08-21T12:41:45.690Z,39.44
2022-08-21T12:44:11.826Z,39.47
2022-08-21T12:46:38.001Z,39.49
2022-08-21T12:49:04.139Z,39.55
2022-08-21T12:51:30.269Z,39.47
2022-08-21T12:53:56.461Z,39.61
2022-08-21T12:56:22.579Z,39.65
2022-08-21T12:58:48.712Z,39.55
2022-08-21T13:01:14.880Z,39.60
2022-08-21T13:03:41.008Z,39.51
2022-08-21T13:06:07.159Z,39.72
2022-08-21T13:08:37.507Z,39.43
2022-08-21T13:11:09.295Z,39.21
2022-08-21T13:13:46.780Z,39.16
2022-08-21T13:16:16.398Z,39.23
2022-08-21T13:18:43.134Z,39.17
2022-08-21T13:21:09.880Z,39.04
2022-08-21T13:23:36.007Z,38.99
2022-08-21T13:26:02.159Z,38.84
2022-08-21T13:28:28.319Z,39.14
2022-08-21T13:30:54.441Z,39.39
2022-08-21T13:33:20.604Z,39.42
2022-08-21T13:35:46.748Z,39.39
2022-08-21T13:38:12.885Z,39.25
2022-08-21T13:40:39.038Z,39.09
2022-08-21T13:43:05.190Z,39.00
2022-08-21T13:45:31.320Z,38.94
2022-08-21T13:47:57.492Z,38.48
2022-08-21T13:50:23.649Z,38.15
2022-08-21T13:52:49.799Z,38.13
2022-08-21T13:55:15.940Z,38.10
2022-08-21T13:57:42.106Z,38.03
2022-08-21T14:00:08.245Z,37.92
2022-08-21T14:02:34.409Z,37.98
2022-08-21T14:05:00.544Z,37.77
2022-08-21T14:07:26.690Z,37.61
2022-08-21T14:09:52.840Z,37.15
2022-08-21T14:12:23.556Z,36.71
2022-08-21T14:14:50.100Z,36.97
2022-08-21T14:17:24.426Z,37.09
2022-08-21T14:19:51.264Z,37.37
2022-08-21T14:22:17.426Z,37.59
2022-08-21T14:24:43.583Z,37.66
2022-08-21T14:27:09.710Z,37.51
2022-08-21T14:29:35.888Z,37.61
2022-08-21T14:32:02.028Z,37.47
2022-08-21T14:34:35.768Z,37.25
2022-08-21T14:37:02.228Z,37.02
2022-08-21T14:39:28.395Z,37.03
2022-08-21T14:41:54.533Z,36.79
2022-08-21T14:44:20.694Z,36.91
2022-08-21T14:46:55.921Z,37.00
2022-08-21T14:49:23.022Z,36.88
2022-08-21T14:51:54.041Z,37.07
2022-08-21T14:54:20.680Z,36.98
2022-08-21T14:56:49.380Z,36.47
2022-08-21T14:59:20.104Z,36.06
2022-08-21T15:01:46.289Z,35.54
2022-08-21T15:04:12.545Z,35.02
2022-08-21T15:06:38.689Z,34.95
2022-08-21T15:09:04.824Z,35.19
2022-08-21T15:11:42.868Z,35.18
2022-08-21T15:14:09.357Z,35.02
2022-08-21T15:16:35.818Z,34.75
2022-08-21T15:19:01.960Z,34.29
2022-08-21T15:21:28.108Z,34.19
2022-08-21T15:23:54.241Z,33.88
2022-08-21T15:26:20.385Z,34.59
2022-08-21T15:28:46.520Z,34.79
2022-08-21T15:31:13.142Z,34.76
2022-08-21T15:33:39.286Z,34.55
2022-08-21T15:36:05.412Z,35.41
2022-08-21T15:38:31.571Z,35.63
2022-08-21T15:40:57.709Z,35.86
2022-08-21T15:43:29.950Z,36.13
2022-08-21T15:45:56.670Z,36.49
2022-08-21T15:48:22.826Z,36.48
2022-08-21T15:50:48.952Z,36.41
2022-08-21T15:53:15.103Z,36.24
2022-08-21T15:55:41.260Z,36.25
2022-08-21T15:58:07.398Z,34.44
2022-08-21T16:00:33.550Z,32.50
2022-08-21T16:02:59.810Z,31.45
2022-08-21T16:05:26.256Z,30.72
2022-08-21T16:07:52.411Z,31.04
2022-08-21T16:10:18.538Z,31.65
2022-08-21T16:12:44.682Z,31.73
2022-08-21T16:15:10.854Z,32.06
2022-08-21T16:17:46.594Z,32.17
2022-08-21T16:20:13.095Z,31.76
2022-08-21T16:22:44.685Z,31.66
2022-08-21T16:25:11.184Z,31.66
2022-08-21T16:27:37.323Z,31.67
2022-08-21T16:30:05.920Z,30.48
2022-08-21T16:32:32.063Z,30.66
2022-08-21T16:34:58.248Z,31.45
2022-08-21T16:37:24.720Z,32.65
2022-08-21T16:39:51.004Z,32.70
2022-08-21T16:42:19.553Z,32.88
2022-08-21T16:44:48.945Z,32.09
2022-08-21T16:47:26.729Z,32.01
2022-08-21T16:49:53.648Z,31.05
2022-08-21T16:52:19.773Z,30.30
2022-08-21T16:54:45.913Z,29.81
2022-08-21T16:57:12.084Z,30.35
2022-08-21T16:59:38.204Z,30.50
2022-08-21T17:02:04.338Z,30.90
2022-08-21T17:04:30.481Z,31.60
2022-08-21T17:06:56.601Z,32.00
2022-08-21T17:09:22.722Z,32.58
2022-08-21T17:11:48.865Z,32.38
2022-08-21T17:14:14.993Z,32.66
2022-08-21T17:16:41.126Z,32.74
2022-08-21T17:19:08.207Z,33.30
2022-08-21T17:21:34.511Z,32.90
2022-08-21T17:24:00.641Z,32.66
2022-08-21T17:26:26.800Z,32.52
2022-08-21T17:28:54.845Z,32.98
2022-08-21T17:31:21.273Z,33.68
2022-08-21T17:33:47.962Z,34.01
2022-08-21T17:36:14.080Z,34.22
2022-08-21T17:38:40.208Z,34.49
2022-08-21T17:41:06.349Z,34.20
2022-08-21T17:43:32.506Z,34.33
2022-08-21T17:45:58.643Z,34.52
2022-08-21T17:48:25.545Z,35.14
2022-08-21T17:50:51.776Z,35.51
2022-08-21T17:53:17.921Z,36.11
2022-08-21T17:55:44.073Z,36.29
2022-08-21T17:58:10.198Z,36.40
2022-08-21T18:00:36.335Z,36.80
2022-08-21T18:03:02.551Z,37.19
2022-08-21T18:05:28.693Z,37.45
2022-08-21T18:07:54.819Z,37.68
2022-08-21T18:10:20.974Z,38.23
2022-08-21T18:12:47.107Z,38.29
2022-08-21T18:15:13.242Z,38.40
2022-08-21T18:17:39.409Z,38.53
2022-08-21T18:20:05.558Z,38.89
2022-08-21T18:22:31.716Z,38.86
2022-08-21T18:24:57.856Z,39.14
2022-08-21T18:27:29.073Z,39.48
2022-08-21T18:29:55.807Z,39.92
2022-08-21T18:32:31.810Z,40.10
2022-08-21T18:34:58.331Z,40.24
2022-08-21T18:37:24.486Z,40.38
2022-08-21T18:39:50.675Z,40.72
2022-08-21T18:42:16.948Z,41.13
2022-08-21T18:44:43.125Z,41.44
2022-08-21T18:47:09.300Z,41.54
2022-08-21T18:49:35.481Z,41.76
2022-08-21T18:52:01.841Z,41.82
2022-08-21T18:54:29.473Z,41.90
2022-08-21T18:56:55.605Z,42.19
2022-08-21T18:59:23.394Z,42.14
2022-08-21T19:01:50.757Z,42.10
2022-08-21T19:04:40.913Z,42.23
2022-08-21T19:07:03.043Z,42.42
2022-08-21T19:09:29.175Z,42.61
2022-08-21T19:11:55.310Z,42.90
2022-08-21T19:14:22.756Z,42.86
2022-08-21T19:16:51.093Z,43.02
2022-08-21T19:19:17.226Z,43.03
2022-08-21T19:21:43.389Z,43.20
2022-08-21T19:26:55.933Z,43.53
2022-08-21T19:29:22.199Z,43.90
2022-08-21T19:32:01.401Z,44.20
2022-08-21T19:34:28.134Z,44.36
2022-08-21T19:36:54.275Z,44.53
2022-08-21T19:39:20.925Z,44.66
2022-08-21T19:41:47.219Z,44.98
2022-08-21T19:44:17.270Z,44.91
2022-08-21T19:46:45.594Z,45.04
2022-08-21T19:49:11.732Z,45.14
2022-08-21T19:51:37.848Z,45.30
2022-08-21T19:54:04.151Z,45.34
2022-08-21T19:56:30.274Z,45.28
2022-08-21T19:58:56.406Z,45.25
2022-08-21T20:01:22.574Z,45.33
2022-08-21T20:03:53.758Z,45.58
2022-08-21T20:06:20.435Z,45.78
2022-08-21T20:08:46.579Z,45.76
2022-08-21T20:11:12.704Z,45.91
2022-08-21T20:13:38.834Z,46.26
2022-08-21T20:16:09.488Z,46.74
2022-08-21T20:18:35.751Z,46.85
2022-08-21T20:21:01.983Z,47.21
2022-08-21T20:23:30.920Z,47.33
2022-08-21T20:26:00.348Z,47.39
2022-08-21T20:28:27.346Z,47.37
2022-08-21T20:30:54.992Z,47.40
2022-08-21T20:33:21.135Z,47.45
2022-08-21T20:35:47.295Z,47.71
2022-08-21T20:38:13.921Z,47.84
2022-08-21T20:40:40.062Z,48.09
2022-08-21T20:43:06.269Z,48.28
2022-08-21T20:45:32.417Z,48.06
2022-08-21T20:47:58.566Z,48.05
2022-08-21T20:50:24.715Z,47.96
2022-08-21T20:52:50.867Z,48.18
2022-08-21T20:55:17.593Z,48.57
2022-08-21T20:57:43.877Z,48.78
2022-08-21T21:00:14.511Z,48.86
2022-08-21T21:02:40.926Z,49.00
2022-08-21T21:05:07.077Z,48.95
2022-08-21T21:07:33.458Z,49.03
2022-08-21T21:09:59.593Z,49.07
2022-08-21T21:15:11.866Z,49.04
2022-08-21T21:17:38.400Z,48.96
2022-08-21T21:20:05.608Z,49.23
2022-08-21T21:22:32.126Z,49.21
2022-08-21T21:24:58.252Z,49.43
2022-08-21T21:27:24.750Z,49.32
2022-08-21T21:29:52.132Z,49.49
2022-08-21T21:32:18.508Z,49.62
2022-08-21T21:34:44.637Z,49.59
2022-08-21T21:37:10.998Z,49.78
2022-08-21T21:39:38.145Z,49.61
2022-08-21T21:42:05.819Z,49.79
2022-08-21T21:44:32.267Z,49.77
2022-08-21T21:46:58.401Z,49.83
2022-08-21T21:49:24.525Z,49.76
2022-08-21T21:51:51.606Z,49.76
2022-08-21T21:54:23.091Z,49.89
2022-08-21T21:56:52.694Z,49.76
2022-08-21T21:59:18.834Z,50.30
2022-08-21T22:01:45.010Z,50.90
2022-08-21T22:04:11.186Z,51.36
2022-08-21T22:06:43.146Z,51.65
2022-08-21T22:09:09.426Z,51.43
2022-08-21T22:11:36.614Z,51.62
2022-08-21T22:14:04.201Z,51.98
2022-08-21T22:16:31.348Z,52.27
2022-08-21T22:18:57.970Z,52.46
2022-08-21T22:21:24.185Z,52.69
2022-08-21T22:23:50.392Z,52.88
2022-08-21T22:26:16.561Z,53.00
2022-08-21T22:28:43.030Z,53.01
2022-08-21T22:31:10.243Z,53.16
2022-08-21T22:33:36.423Z,53.31
2022-08-21T22:36:02.554Z,53.48
2022-08-21T22:38:28.677Z,53.37
2022-08-21T22:40:56.843Z,53.33
2022-08-21T22:43:22.976Z,53.31
2022-08-21T22:45:49.103Z,53.16
2022-08-21T22:48:22.571Z,53.46
2022-08-21T22:50:48.956Z,53.26
2022-08-21T22:53:17.471Z,53.10
2022-08-21T22:55:44.067Z,52.85
2022-08-21T22:58:10.227Z,53.00
2022-08-21T23:00:36.402Z,52.86
2022-08-21T23:03:03.633Z,52.74
2022-08-21T23:05:30.592Z,52.92
2022-08-21T23:07:56.917Z,52.96
2022-08-21T23:10:23.234Z,53.07
2022-08-21T23:12:54.222Z,53.44
2022-08-21T23:15:20.614Z,53.72
2022-08-21T23:17:50.115Z,53.70
2022-08-21T23:20:16.398Z,53.49
2022-08-21T23:22:42.545Z,53.58
2022-08-21T23:25:08.687Z,53.52
2022-08-21T23:27:35.928Z,53.62
2022-08-21T23:30:02.225Z,53.76
2022-08-21T23:35:15.171Z,54.05
2022-08-21T23:37:49.083Z,54.06
2022-08-21T23:40:15.787Z,54.41
2022-08-21T23:42:45.762Z,54.33
2022-08-21T23:45:14.079Z,54.39
2022-08-21T23:47:40.474Z,54.49
2022-08-21T23:50:13.942Z,54.86
2022-08-21T23:52:42.774Z,55.01
2022-08-21T23:55:09.094Z,54.98
2022-08-21T23:57:35.218Z,55.05
